Pella, IA

11:03 AM CDT on August 01, 2014 (GMT -0500)
Newton Municipal (KTNU) Elev 951 ft | 41.67 °N, 93.02 °W | Change Station

Current weather conditions updated 28 minutes ago

Clear
Clear
75 °F
Feels Like 75 °F
N
0
Wind Variable Wind from North

Today is forecast to be Warmer than yesterday. Scattered thunderstorms.

Today
High -- | Low -- °F
--% Chance of Precip.
Yesterday
High -- | Low -- °F
Precip. -- in
6:06 AM 8:28 PM
Waxing Crescent, 27% visible
Pressure 30.11 in
Visibility 10.0 miles
Clouds Clear
Dew Point 61 °F
Humidity 61%
Rainfall 0.00 in
Snow Depth Not available.
UV 7 out of 12
Pollen 7.60 out of 12
Air Quality Not available.
Flu Activity Not available.
METAR KTNU 011535Z AUTO 00000KT 10SM CLR 24/16 A3011 RMK AO2

More Conditions Fewer Conditions

Pressure 30.11 in
Visibility 10.0 miles
Clouds Clear
Dew Point 61 °F
Humidity 61%
Rainfall 0.00 in
Snow Depth Not available.
UV 7 out of 12
Pollen 7.60 out of 12
Air Quality Not available.
Flu Activity Not available.
METAR KTNU 011535Z AUTO 00000KT 10SM CLR 24/16 A3011 RMK AO2

More Conditions Fewer Conditions

10-Day Weather Forecast

Almanac

Astronomy

Aug. 01, 2014 Rise Set
Actual Time 6:06 AM CDT 8:28 PM CDT
Civil Twilight 5:35 AM CDT 8:59 PM CDT
Nautical Twilight 4:56 AM CDT 9:38 PM CDT
Astronomical Twilight 4:13 AM CDT 10:20 PM CDT
Moon 11:35 AM CDT 11:08 PM CDT
Length of Visible Light 15h 24m
Length of Day
14h 22m
Tomorrow will be 2m 7s shorter.
Waxing Crescent, 27% of the Moon is Illuminated
Today
Waxing Crescent
Aug 3
First Quarter
Aug 10
Full
Aug 17
Last Quarter
Aug 25
New

Today's Extremes

State Highs State Lows

Community

WunderPhotos

Upload Photos

1,739,621 photos uploaded!

Nearby

Snow Depth

Station Depth Elevation
No new snow has been reported.

Earthquake Activity

City Distance Mag. Time & Date
No recent earthquake activity has been reported nearby.
Minimum magnitude displayed is 2.5.

Coastal Water Temperatures

Place Temperature
No Stations Reporting

Nearby Weather Stations

Station Location Temp. Heat Index Dew Point Humidity Wind Precip. Elev Updated Type
BankerWeather, Pella, IA 76.3 °F 78 °F 65 °F 69% NNW  at  0.0 mph - / hr 850 ft 11:01 AM CDT Normal
Hunters Ridge, Pella, IA 76.6 °F 78 °F 67 °F 71% NW  at  0.0 mph 0.00 in / hr 840 ft 10:52 AM CDT Normal
Otley, Otley, IA 76.8 °F 79 °F 67 °F 71% NNW  at  3.0 mph 0.00 in / hr 810 ft 11:03 AM CDT Rapid Fire
Oskaloosa, IA 77.8 °F 79 °F 63 °F 60% North  at  0.0 mph 0.00 in / hr 846 ft 11:03 AM CDT Rapid Fire
Rural Pleasantville, Pleasantville, IA 78.1 °F 80 °F 62 °F 57% NE  at  4.7 mph - / hr 843 ft 11:03 AM CDT Normal
RAWS NEAL SMITH IA, Prairie City, IA 76 °F 78 °F 63 °F 65% SE  at  2 mph 0.00 in / hr 897 ft 9:48 AM CDT MADIS
MesoWest MELCHR , Dallas, IA 63 °F - - - North  at  - 0.00 in / hr 955 ft 7:45 AM CDT MADIS
Newton, IA 78.9 °F 81 °F 63 °F 59% NNW  at  0.0 mph 0.00 in / hr 943 ft 11:00 AM CDT Normal

Show More Stations Show Fewer Stations